Terminal Aerodrome Forecast
Issued by NWS

Home | Current Version | Previous Version | Graphics & Text | Print | Product List | Glossary On
Versions: 1 2 3 4 5 6 7 8 9 10 11 12 13 14 15
000
FTUS43 KUNR 222300
TAFGCC
TAF
KGCC 222324Z 2300/2324 23013KT P6SM SCT150
     FM231200 28011KT P6SM -SHSN BKN025 OVC080
     FM232100 30011KT P6SM SCT035=

USA.gov is the U.S. government's official web portal to all federal, state and local government web resources and services.